Terminal Aerodrome Forecast
Issued by NWS

Home | Current Version | Previous Version | Text Only | Print | Product List | Glossary On
Versions: 1 2 3 4 5 6 7 8 9 10 11 12 13
198
FTUS43 KAPX 241733 AAB
TAFTVC
TAF AMD
KTVC 241733Z 2418/2518 22008KT P6SM BKN025
     FM242200 23009KT P6SM VCTS BKN025CB
     FM250000 23005KT P6SM BKN020
     FM250200 24006KT P6SM BKN040
     FM250500 30006KT P6SM SCT250
     FM251600 29010KT P6SM FEW040=

USA.gov is the U.S. government's official web portal to all federal, state and local government web resources and services.